sensor_id;sensor_type;location;lat;lon;timestamp;pressure;altitude;pressure_sealevel;temperature;humidity
8253;BME280;61313;48.396;10.008;2024-02-15T00:01:10;96718.56;;;10.46;66.55
8253;BME280;61313;48.396;10.008;2024-02-15T00:03:35;96721.31;;;10.43;66.58
8253;BME280;61313;48.396;10.008;2024-02-15T00:06:01;96720.28;;;10.47;66.73
8253;BME280;61313;48.396;10.008;2024-02-15T00:08:29;96724.81;;;10.42;66.96
8253;BME280;61313;48.396;10.008;2024-02-15T00:10:54;96713.38;;;10.44;66.54
8253;BME280;61313;48.396;10.008;2024-02-15T00:13:20;96707.00;;;10.51;66.34
8253;BME280;61313;48.396;10.008;2024-02-15T00:15:45;96704.63;;;10.44;66.71
8253;BME280;61313;48.396;10.008;2024-02-15T00:18:13;96706.53;;;10.40;66.70
8253;BME280;61313;48.396;10.008;2024-02-15T00:20:39;96705.25;;;10.27;67.18
8253;BME280;61313;48.396;10.008;2024-02-15T00:23:04;96705.53;;;10.19;67.54
8253;BME280;61313;48.396;10.008;2024-02-15T00:25:32;96715.06;;;10.22;67.34
8253;BME280;61313;48.396;10.008;2024-02-15T00:27:57;96728.94;;;10.25;66.98
8253;BME280;61313;48.396;10.008;2024-02-15T00:30:23;96720.84;;;10.31;67.05
8253;BME280;61313;48.396;10.008;2024-02-15T00:32:48;96721.69;;;10.32;66.90
8253;BME280;61313;48.396;10.008;2024-02-15T00:35:14;96724.09;;;10.38;66.21
8253;BME280;61313;48.396;10.008;2024-02-15T00:37:42;96716.28;;;10.36;66.64
8253;BME280;61313;48.396;10.008;2024-02-15T00:40:08;96720.44;;;10.42;66.49
8253;BME280;61313;48.396;10.008;2024-02-15T00:42:34;96714.84;;;10.28;67.10
8253;BME280;61313;48.396;10.008;2024-02-15T00:44:59;96714.50;;;10.13;67.00
8253;BME280;61313;48.396;10.008;2024-02-15T00:47:25;96723.22;;;10.14;67.46
8253;BME280;61313;48.396;10.008;2024-02-15T00:49:50;96720.53;;;10.15;67.33
8253;BME280;61313;48.396;10.008;2024-02-15T00:52:16;96727.03;;;10.05;67.33
8253;BME280;61313;48.396;10.008;2024-02-15T00:54:45;96724.75;;;9.96;67.78
8253;BME280;61313;48.396;10.008;2024-02-15T00:57:11;96724.81;;;9.94;67.92
8253;BME280;61313;48.396;10.008;2024-02-15T00:59:36;96723.84;;;9.97;67.76
8253;BME280;61313;48.396;10.008;2024-02-15T01:02:03;96722.34;;;9.90;67.70
8253;BME280;61313;48.396;10.008;2024-02-15T01:04:28;96721.72;;;9.83;67.89
8253;BME280;61313;48.396;10.008;2024-02-15T01:06:55;96719.63;;;9.93;67.34
8253;BME280;61313;48.396;10.008;2024-02-15T01:09:22;96715.38;;;9.89;68.29
8253;BME280;61313;48.396;10.008;2024-02-15T01:11:47;96718.84;;;9.89;67.92
8253;BME280;61313;48.396;10.008;2024-02-15T01:14:13;96722.19;;;9.94;68.10
8253;BME280;61313;48.396;10.008;2024-02-15T01:16:43;96724.00;;;9.92;67.75
8253;BME280;61313;48.396;10.008;2024-02-15T01:19:09;96723.88;;;9.95;67.95
8253;BME280;61313;48.396;10.008;2024-02-15T01:21:35;96721.72;;;9.83;68.03
8253;BME280;61313;48.396;10.008;2024-02-15T01:24:00;96720.75;;;9.86;67.92
8253;BME280;61313;48.396;10.008;2024-02-15T01:26:26;96722.41;;;9.88;67.90
8253;BME280;61313;48.396;10.008;2024-02-15T01:28:52;96720.66;;;9.87;67.90
8253;BME280;61313;48.396;10.008;2024-02-15T01:31:17;96720.00;;;9.82;68.10
8253;BME280;61313;48.396;10.008;2024-02-15T01:33:43;96719.25;;;9.79;68.44
8253;BME280;61313;48.396;10.008;2024-02-15T01:36:16;96724.38;;;9.82;68.35
8253;BME280;61313;48.396;10.008;2024-02-15T01:38:42;96721.81;;;9.80;68.51
8253;BME280;61313;48.396;10.008;2024-02-15T01:41:07;96721.38;;;9.92;67.57
8253;BME280;61313;48.396;10.008;2024-02-15T01:43:33;96717.88;;;9.92;67.80
8253;BME280;61313;48.396;10.008;2024-02-15T01:45:59;96716.88;;;9.96;67.91
8253;BME280;61313;48.396;10.008;2024-02-15T01:48:29;96720.47;;;9.93;68.02
8253;BME280;61313;48.396;10.008;2024-02-15T01:50:55;96715.34;;;9.90;68.26
8253;BME280;61313;48.396;10.008;2024-02-15T01:53:21;96714.66;;;9.85;67.89
8253;BME280;61313;48.396;10.008;2024-02-15T01:55:46;96704.81;;;9.67;68.98
8253;BME280;61313;48.396;10.008;2024-02-15T01:58:12;96708.94;;;9.74;68.55
8253;BME280;61313;48.396;10.008;2024-02-15T02:00:37;96712.41;;;9.74;68.62
8253;BME280;61313;48.396;10.008;2024-02-15T02:03:05;96703.75;;;9.72;68.72
8253;BME280;61313;48.396;10.008;2024-02-15T02:05:31;96698.81;;;9.63;68.61
8253;BME280;61313;48.396;10.008;2024-02-15T02:07:56;96705.31;;;9.53;69.04
8253;BME280;61313;48.396;10.008;2024-02-15T02:10:25;96696.59;;;9.52;69.21
8253;BME280;61313;48.396;10.008;2024-02-15T02:12:52;96688.66;;;9.54;69.27
8253;BME280;61313;48.396;10.008;2024-02-15T02:15:18;96689.25;;;9.62;68.79
8253;BME280;61313;48.396;10.008;2024-02-15T02:17:49;96690.06;;;9.64;69.05
8253;BME280;61313;48.396;10.008;2024-02-15T02:20:16;96691.34;;;9.52;69.32
8253;BME280;61313;48.396;10.008;2024-02-15T02:22:44;96690.81;;;9.43;69.84
8253;BME280;61313;48.396;10.008;2024-02-15T02:25:12;96687.31;;;9.42;69.83
8253;BME280;61313;48.396;10.008;2024-02-15T02:27:38;96681.41;;;9.37;69.77
8253;BME280;61313;48.396;10.008;2024-02-15T02:30:05;96678.56;;;9.43;69.55
8253;BME280;61313;48.396;10.008;2024-02-15T02:32:34;96678.09;;;9.32;69.48
8253;BME280;61313;48.396;10.008;2024-02-15T02:35:01;96682.31;;;9.36;69.12
8253;BME280;61313;48.396;10.008;2024-02-15T02:37:26;96685.06;;;9.33;69.18
8253;BME280;61313;48.396;10.008;2024-02-15T02:39:52;96689.41;;;9.32;69.64
8253;BME280;61313;48.396;10.008;2024-02-15T02:42:18;96685.41;;;9.22;69.75
8253;BME280;61313;48.396;10.008;2024-02-15T02:44:43;96684.44;;;9.25;69.26
8253;BME280;61313;48.396;10.008;2024-02-15T02:47:09;96681.09;;;9.21;70.00
8253;BME280;61313;48.396;10.008;2024-02-15T02:49:35;96692.34;;;9.23;69.84
8253;BME280;61313;48.396;10.008;2024-02-15T02:52:01;96685.13;;;9.30;69.19
8253;BME280;61313;48.396;10.008;2024-02-15T02:54:26;96689.56;;;9.28;69.67
8253;BME280;61313;48.396;10.008;2024-02-15T02:56:52;96694.00;;;9.26;69.43
8253;BME280;61313;48.396;10.008;2024-02-15T02:59:17;96686.94;;;9.28;69.80
8253;BME280;61313;48.396;10.008;2024-02-15T03:01:42;96689.09;;;9.17;69.80
8253;BME280;61313;48.396;10.008;2024-02-15T03:04:08;96690.94;;;9.13;70.13
8253;BME280;61313;48.396;10.008;2024-02-15T03:06:34;96686.63;;;9.12;70.24
8253;BME280;61313;48.396;10.008;2024-02-15T03:08:59;96685.88;;;9.08;70.70
8253;BME280;61313;48.396;10.008;2024-02-15T03:11:25;96681.41;;;9.12;69.77
8253;BME280;61313;48.396;10.008;2024-02-15T03:13:50;96681.63;;;9.04;70.40
8253;BME280;61313;48.396;10.008;2024-02-15T03:16:16;96680.94;;;8.99;70.67
8253;BME280;61313;48.396;10.008;2024-02-15T03:18:42;96685.97;;;9.05;70.28
8253;BME280;61313;48.396;10.008;2024-02-15T03:21:08;96683.94;;;9.14;69.89
8253;BME280;61313;48.396;10.008;2024-02-15T03:23:36;96683.50;;;9.01;70.62
8253;BME280;61313;48.396;10.008;2024-02-15T03:26:02;96684.06;;;9.10;70.34
8253;BME280;61313;48.396;10.008;2024-02-15T03:28:29;96683.88;;;9.17;70.12
8253;BME280;61313;48.396;10.008;2024-02-15T03:30:54;96679.63;;;9.13;70.67
8253;BME280;61313;48.396;10.008;2024-02-15T03:33:21;96683.88;;;9.17;70.55
8253;BME280;61313;48.396;10.008;2024-02-15T03:35:51;96680.47;;;9.13;70.58
8253;BME280;61313;48.396;10.008;2024-02-15T03:38:17;96686.56;;;9.14;70.73
8253;BME280;61313;48.396;10.008;2024-02-15T03:40:42;96680.63;;;9.08;70.87
8253;BME280;61313;48.396;10.008;2024-02-15T03:43:08;96682.13;;;9.16;70.66
8253;BME280;61313;48.396;10.008;2024-02-15T03:45:34;96682.03;;;9.19;70.07
8253;BME280;61313;48.396;10.008;2024-02-15T03:47:59;96678.19;;;9.29;70.05
8253;BME280;61313;48.396;10.008;2024-02-15T03:50:25;96674.25;;;9.17;70.35
8253;BME280;61313;48.396;10.008;2024-02-15T03:52:50;96672.63;;;9.13;70.55
8253;BME280;61313;48.396;10.008;2024-02-15T03:55:16;96665.84;;;9.07;70.89
8253;BME280;61313;48.396;10.008;2024-02-15T03:57:41;96666.88;;;9.02;70.66
8253;BME280;61313;48.396;10.008;2024-02-15T04:00:09;96667.09;;;8.96;70.25
8253;BME280;61313;48.396;10.008;2024-02-15T04:02:36;96674.06;;;8.95;70.65
8253;BME280;61313;48.396;10.008;2024-02-15T04:05:02;96669.06;;;8.89;70.34
8253;BME280;61313;48.396;10.008;2024-02-15T04:07:30;96674.84;;;8.99;70.81
8253;BME280;61313;48.396;10.008;2024-02-15T04:09:56;96671.69;;;8.89;70.47
8253;BME280;61313;48.396;10.008;2024-02-15T04:12:21;96681.03;;;8.96;70.63
8253;BME280;61313;48.396;10.008;2024-02-15T04:14:47;96674.00;;;8.98;70.15
8253;BME280;61313;48.396;10.008;2024-02-15T04:17:14;96675.91;;;8.93;70.05
8253;BME280;61313;48.396;10.008;2024-02-15T04:19:44;96679.00;;;9.04;69.94
8253;BME280;61313;48.396;10.008;2024-02-15T04:22:09;96674.00;;;8.98;69.88
8253;BME280;61313;48.396;10.008;2024-02-15T04:24:35;96674.31;;;8.89;70.03
8253;BME280;61313;48.396;10.008;2024-02-15T04:27:08;96673.44;;;8.88;70.93
8253;BME280;61313;48.396;10.008;2024-02-15T04:29:38;96670.91;;;8.85;71.36
8253;BME280;61313;48.396;10.008;2024-02-15T04:32:07;96661.22;;;8.89;70.85
8253;BME280;61313;48.396;10.008;2024-02-15T04:34:38;96661.41;;;8.83;71.12
8253;BME280;61313;48.396;10.008;2024-02-15T04:37:03;96665.44;;;8.93;70.69
8253;BME280;61313;48.396;10.008;2024-02-15T04:39:35;96667.34;;;8.88;70.81
8253;BME280;61313;48.396;10.008;2024-02-15T04:42:02;96657.69;;;8.90;70.90
8253;BME280;61313;48.396;10.008;2024-02-15T04:44:27;96661.06;;;8.94;70.77
8253;BME280;61313;48.396;10.008;2024-02-15T04:46:54;96660.59;;;8.81;71.36
8253;BME280;61313;48.396;10.008;2024-02-15T04:49:20;96646.91;;;8.73;71.30
8253;BME280;61313;48.396;10.008;2024-02-15T04:51:46;96656.28;;;8.80;71.39
8253;BME280;61313;48.396;10.008;2024-02-15T04:54:12;96664.09;;;8.81;71.32
8253;BME280;61313;48.396;10.008;2024-02-15T04:56:41;96659.81;;;8.79;71.14
8253;BME280;61313;48.396;10.008;2024-02-15T04:59:07;96665.34;;;8.69;71.52
8253;BME280;61313;48.396;10.008;2024-02-15T05:01:42;96661.69;;;8.74;70.59
8253;BME280;61313;48.396;10.008;2024-02-15T05:04:09;96669.53;;;8.74;70.53
8253;BME280;61313;48.396;10.008;2024-02-15T05:06:35;96666.34;;;8.65;71.61
8253;BME280;61313;48.396;10.008;2024-02-15T05:09:02;96670.91;;;8.59;71.48
8253;BME280;61313;48.396;10.008;2024-02-15T05:11:33;96672.72;;;8.57;72.10
8253;BME280;61313;48.396;10.008;2024-02-15T05:14:01;96666.09;;;8.73;71.30
8253;BME280;61313;48.396;10.008;2024-02-15T05:16:26;96664.38;;;8.72;71.28
8253;BME280;61313;48.396;10.008;2024-02-15T05:18:52;96658.66;;;8.59;71.46
8253;BME280;61313;48.396;10.008;2024-02-15T05:21:18;96661.22;;;8.62;71.62
8253;BME280;61313;48.396;10.008;2024-02-15T05:23:44;96663.16;;;8.56;71.17
8253;BME280;61313;48.396;10.008;2024-02-15T05:26:11;96671.53;;;8.37;72.03
8253;BME280;61313;48.396;10.008;2024-02-15T05:28:37;96673.38;;;8.05;73.05
8253;BME280;61313;48.396;10.008;2024-02-15T05:31:16;96670.56;;;8.12;73.38
8253;BME280;61313;48.396;10.008;2024-02-15T05:33:43;96676.03;;;8.04;73.06
8253;BME280;61313;48.396;10.008;2024-02-15T05:36:16;96668.19;;;8.04;72.73
8253;BME280;61313;48.396;10.008;2024-02-15T05:38:47;96665.53;;;8.05;73.38
8253;BME280;61313;48.396;10.008;2024-02-15T05:41:12;96663.50;;;8.15;72.18
8253;BME280;61313;48.396;10.008;2024-02-15T05:43:41;96667.00;;;8.14;72.45
8253;BME280;61313;48.396;10.008;2024-02-15T05:46:10;96668.16;;;8.05;72.69
8253;BME280;61313;48.396;10.008;2024-02-15T05:48:36;96666.19;;;8.12;72.69
8253;BME280;61313;48.396;10.008;2024-02-15T05:51:03;96656.31;;;8.22;71.68
8253;BME280;61313;48.396;10.008;2024-02-15T05:53:29;96657.53;;;8.10;72.51
8253;BME280;61313;48.396;10.008;2024-02-15T05:55:55;96648.69;;;8.16;71.23
8253;BME280;61313;48.396;10.008;2024-02-15T05:58:23;96654.03;;;8.11;71.28
8253;BME280;61313;48.396;10.008;2024-02-15T06:00:48;96658.44;;;8.09;71.27
8253;BME280;61313;48.396;10.008;2024-02-15T06:03:15;96659.75;;;8.24;71.81
8253;BME280;61313;48.396;10.008;2024-02-15T06:05:41;96664.59;;;8.08;71.41
8253;BME280;61313;48.396;10.008;2024-02-15T06:08:06;96663.81;;;8.04;71.58
8253;BME280;61313;48.396;10.008;2024-02-15T06:10:32;96671.63;;;8.06;71.61
8253;BME280;61313;48.396;10.008;2024-02-15T06:12:57;96662.03;;;8.05;71.79
8253;BME280;61313;48.396;10.008;2024-02-15T06:15:26;96660.38;;;8.02;71.41
8253;BME280;61313;48.396;10.008;2024-02-15T06:17:52;96664.91;;;7.97;71.58
8253;BME280;61313;48.396;10.008;2024-02-15T06:20:18;96665.88;;;7.93;72.36
8253;BME280;61313;48.396;10.008;2024-02-15T06:22:45;96666.09;;;7.85;71.90
8253;BME280;61313;48.396;10.008;2024-02-15T06:25:12;96673.91;;;7.87;72.49
8253;BME280;61313;48.396;10.008;2024-02-15T06:27:39;96670.81;;;8.04;70.86
8253;BME280;61313;48.396;10.008;2024-02-15T06:30:11;96670.16;;;7.96;70.85
8253;BME280;61313;48.396;10.008;2024-02-15T06:32:56;96674.31;;;7.73;71.90
8253;BME280;61313;48.396;10.008;2024-02-15T06:35:40;96675.38;;;7.96;70.76
8253;BME280;61313;48.396;10.008;2024-02-15T06:38:24;96683.97;;;7.70;71.67
8253;BME280;61313;48.396;10.008;2024-02-15T06:41:08;96684.84;;;8.30;70.32
8253;BME280;61313;48.396;10.008;2024-02-15T06:43:35;96687.22;;;8.37;69.32
8253;BME280;61313;48.396;10.008;2024-02-15T06:46:01;96692.00;;;8.24;69.65
8253;BME280;61313;48.396;10.008;2024-02-15T06:48:26;96681.94;;;8.40;68.32
8253;BME280;61313;48.396;10.008;2024-02-15T06:50:52;96681.22;;;8.63;67.66
8253;BME280;61313;48.396;10.008;2024-02-15T06:53:17;96683.25;;;8.55;68.34
8253;BME280;61313;48.396;10.008;2024-02-15T06:55:48;96680.63;;;9.08;66.70
8253;BME280;61313;48.396;10.008;2024-02-15T06:58:15;96684.72;;;9.67;64.17
8253;BME280;61313;48.396;10.008;2024-02-15T07:00:42;96676.56;;;9.99;62.79
8253;BME280;61313;48.396;10.008;2024-02-15T07:03:08;96673.91;;;10.47;61.38
8253;BME280;61313;48.396;10.008;2024-02-15T07:05:34;96680.00;;;10.92;59.12
8253;BME280;61313;48.396;10.008;2024-02-15T07:07:59;96673.22;;;11.08;58.46
8253;BME280;61313;48.396;10.008;2024-02-15T07:10:26;96676.03;;;11.04;58.70
8253;BME280;61313;48.396;10.008;2024-02-15T07:12:51;96664.00;;;11.59;56.78
8253;BME280;61313;48.396;10.008;2024-02-15T07:15:17;96666.63;;;11.59;56.28
8253;BME280;61313;48.396;10.008;2024-02-15T07:17:42;96673.88;;;11.95;55.56
8253;BME280;61313;48.396;10.008;2024-02-15T07:20:11;96674.50;;;11.80;55.54
8253;BME280;61313;48.396;10.008;2024-02-15T07:22:38;96668.19;;;11.84;55.42
8253;BME280;61313;48.396;10.008;2024-02-15T07:25:04;96671.81;;;11.81;55.29
8253;BME280;61313;48.396;10.008;2024-02-15T07:27:29;96665.34;;;11.49;57.03
8253;BME280;61313;48.396;10.008;2024-02-15T07:29:55;96668.47;;;11.16;57.82
8253;BME280;61313;48.396;10.008;2024-02-15T07:32:21;96666.13;;;10.88;58.45
8253;BME280;61313;48.396;10.008;2024-02-15T07:34:47;96674.94;;;10.43;59.93
8253;BME280;61313;48.396;10.008;2024-02-15T07:37:13;96664.56;;;10.62;59.66
8253;BME280;61313;48.396;10.008;2024-02-15T07:39:41;96666.94;;;10.90;58.46
8253;BME280;61313;48.396;10.008;2024-02-15T07:42:06;96662.31;;;11.38;56.96
8253;BME280;61313;48.396;10.008;2024-02-15T07:44:34;96654.16;;;12.61;54.22
8253;BME280;61313;48.396;10.008;2024-02-15T07:47:01;96657.84;;;13.47;51.35
8253;BME280;61313;48.396;10.008;2024-02-15T07:49:27;96647.94;;;14.34;48.83
8253;BME280;61313;48.396;10.008;2024-02-15T07:51:52;96631.63;;;15.36;46.08
8253;BME280;61313;48.396;10.008;2024-02-15T07:54:19;96634.69;;;16.16;44.07
8253;BME280;61313;48.396;10.008;2024-02-15T07:56:47;96647.94;;;16.71;42.28
8253;BME280;61313;48.396;10.008;2024-02-15T07:59:14;96636.34;;;17.01;41.37
8253;BME280;61313;48.396;10.008;2024-02-15T08:01:41;96630.47;;;17.36;40.82
8253;BME280;61313;48.396;10.008;2024-02-15T08:04:07;96619.28;;;17.58;40.28
8253;BME280;61313;48.396;10.008;2024-02-15T08:06:33;96628.56;;;17.38;40.61
8253;BME280;61313;48.396;10.008;2024-02-15T08:09:02;96625.34;;;17.86;39.64
8253;BME280;61313;48.396;10.008;2024-02-15T08:11:30;96620.94;;;18.23;38.33
8253;BME280;61313;48.396;10.008;2024-02-15T08:13:55;96617.41;;;18.72;37.20
8253;BME280;61313;48.396;10.008;2024-02-15T08:16:24;96614.34;;;18.78;36.97
8253;BME280;61313;48.396;10.008;2024-02-15T08:18:53;96615.97;;;19.63;35.61
8253;BME280;61313;48.396;10.008;2024-02-15T08:21:27;96604.09;;;20.02;34.45
8253;BME280;61313;48.396;10.008;2024-02-15T08:23:54;96599.22;;;19.74;34.32
8253;BME280;61313;48.396;10.008;2024-02-15T08:26:21;96604.06;;;19.91;34.01
8253;BME280;61313;48.396;10.008;2024-02-15T08:28:46;96594.16;;;20.04;33.35
8253;BME280;61313;48.396;10.008;2024-02-15T08:31:12;96587.63;;;19.97;33.53
8253;BME280;61313;48.396;10.008;2024-02-15T08:33:40;96592.34;;;20.27;33.11
8253;BME280;61313;48.396;10.008;2024-02-15T08:36:06;96582.97;;;22.25;40.05
8253;BME280;61313;48.396;10.008;2024-02-15T08:38:32;96575.16;;;23.13;31.79
8253;BME280;61313;48.396;10.008;2024-02-15T08:40:59;96581.91;;;22.37;35.34
8253;BME280;61313;48.396;10.008;2024-02-15T08:43:25;96574.06;;;22.65;35.84
8253;BME280;61313;48.396;10.008;2024-02-15T08:45:50;96576.94;;;22.93;35.22
8253;BME280;61313;48.396;10.008;2024-02-15T08:48:15;96576.38;;;22.29;36.04
8253;BME280;61313;48.396;10.008;2024-02-15T08:50:41;96583.94;;;20.55;33.19
8253;BME280;61313;48.396;10.008;2024-02-15T08:53:07;96582.38;;;19.27;35.28
8253;BME280;61313;48.396;10.008;2024-02-15T08:55:32;96587.78;;;18.78;36.26
8253;BME280;61313;48.396;10.008;2024-02-15T08:58:00;96582.59;;;18.64;36.66
8253;BME280;61313;48.396;10.008;2024-02-15T09:00:27;96580.16;;;18.24;37.54
8253;BME280;61313;48.396;10.008;2024-02-15T09:02:53;96570.84;;;17.80;38.63
8253;BME280;61313;48.396;10.008;2024-02-15T09:05:19;96571.81;;;17.79;38.62
8253;BME280;61313;48.396;10.008;2024-02-15T09:07:47;96579.53;;;17.31;39.77
8253;BME280;61313;48.396;10.008;2024-02-15T09:10:14;96578.66;;;17.05;40.52
8253;BME280;61313;48.396;10.008;2024-02-15T09:12:43;96574.78;;;16.83;40.62
8253;BME280;61313;48.396;10.008;2024-02-15T09:15:10;96581.47;;;16.20;42.12
8253;BME280;61313;48.396;10.008;2024-02-15T09:17:42;96571.59;;;17.31;40.54
8253;BME280;61313;48.396;10.008;2024-02-15T09:20:10;96558.13;;;17.34;40.38
8253;BME280;61313;48.396;10.008;2024-02-15T09:22:49;96566.59;;;17.26;39.99
8253;BME280;61313;48.396;10.008;2024-02-15T09:25:15;96567.13;;;16.79;41.42
8253;BME280;61313;48.396;10.008;2024-02-15T09:27:41;96562.88;;;17.29;40.14
8253;BME280;61313;48.396;10.008;2024-02-15T09:30:07;96556.72;;;17.67;39.65
8253;BME280;61313;48.396;10.008;2024-02-15T09:32:38;96561.63;;;16.82;41.68
8253;BME280;61313;48.396;10.008;2024-02-15T09:35:04;96553.22;;;17.41;39.71
8253;BME280;61313;48.396;10.008;2024-02-15T09:37:46;96547.69;;;18.08;38.48
8253;BME280;61313;48.396;10.008;2024-02-15T09:40:16;96544.41;;;18.04;38.54
8253;BME280;61313;48.396;10.008;2024-02-15T09:42:43;96541.34;;;17.72;38.67
8253;BME280;61313;48.396;10.008;2024-02-15T09:45:13;96539.97;;;16.21;41.37
8253;BME280;61313;48.396;10.008;2024-02-15T09:47:40;96532.81;;;17.03;40.21
8253;BME280;61313;48.396;10.008;2024-02-15T09:50:13;96534.53;;;16.77;41.24
8253;BME280;61313;48.396;10.008;2024-02-15T09:52:39;96527.94;;;17.99;38.42
8253;BME280;61313;48.396;10.008;2024-02-15T09:55:07;96522.91;;;18.20;37.92
8253;BME280;61313;48.396;10.008;2024-02-15T09:57:38;96511.94;;;17.62;38.62
8253;BME280;61313;48.396;10.008;2024-02-15T10:00:04;96515.78;;;17.58;39.14
8253;BME280;61313;48.396;10.008;2024-02-15T10:02:34;96519.91;;;16.44;41.34
8253;BME280;61313;48.396;10.008;2024-02-15T10:05:02;96524.88;;;16.90;40.97
8253;BME280;61313;48.396;10.008;2024-02-15T10:07:27;96516.72;;;17.06;40.67
8253;BME280;61313;48.396;10.008;2024-02-15T10:09:54;96521.63;;;16.45;41.85
8253;BME280;61313;48.396;10.008;2024-02-15T10:12:19;96512.28;;;17.58;39.49
8253;BME280;61313;48.396;10.008;2024-02-15T10:14:50;96511.09;;;18.24;38.37
8253;BME280;61313;48.396;10.008;2024-02-15T10:17:18;96510.69;;;18.17;38.75
8253;BME280;61313;48.396;10.008;2024-02-15T10:19:44;96503.75;;;17.78;39.85
8253;BME280;61313;48.396;10.008;2024-02-15T10:22:10;96502.38;;;18.22;39.11
8253;BME280;61313;48.396;10.008;2024-02-15T10:24:37;96492.81;;;17.95;39.51
8253;BME280;61313;48.396;10.008;2024-02-15T10:27:05;96499.06;;;17.94;39.64
8253;BME280;61313;48.396;10.008;2024-02-15T10:29:36;96494.19;;;18.25;39.10
8253;BME280;61313;48.396;10.008;2024-02-15T10:32:03;96493.06;;;18.65;38.71
8253;BME280;61313;48.396;10.008;2024-02-15T10:34:30;96492.34;;;18.14;39.43
8253;BME280;61313;48.396;10.008;2024-02-15T10:37:15;96491.66;;;17.87;40.26
8253;BME280;61313;48.396;10.008;2024-02-15T10:39:45;96491.34;;;17.66;40.43
8253;BME280;61313;48.396;10.008;2024-02-15T10:42:12;96496.28;;;16.41;44.05
8253;BME280;61313;48.396;10.008;2024-02-15T10:44:38;96486.06;;;16.62;43.49
8253;BME280;61313;48.396;10.008;2024-02-15T10:47:07;96485.84;;;17.05;42.88
8253;BME280;61313;48.396;10.008;2024-02-15T10:49:34;96486.31;;;16.71;43.74
8253;BME280;61313;48.396;10.008;2024-02-15T10:52:01;96478.41;;;16.44;45.03
8253;BME280;61313;48.396;10.008;2024-02-15T10:55:04;96486.72;;;15.84;46.54
8253;BME280;61313;48.396;10.008;2024-02-15T10:57:31;96477.84;;;15.42;47.89
8253;BME280;61313;48.396;10.008;2024-02-15T10:59:58;96470.34;;;16.46;45.72
8253;BME280;61313;48.396;10.008;2024-02-15T11:02:30;96472.66;;;16.38;45.99
8253;BME280;61313;48.396;10.008;2024-02-15T11:05:08;96471.44;;;16.56;45.94
8253;BME280;61313;48.396;10.008;2024-02-15T11:07:38;96456.38;;;17.09;44.97
8253;BME280;61313;48.396;10.008;2024-02-15T11:10:06;96455.31;;;17.38;43.54
8253;BME280;61313;48.396;10.008;2024-02-15T11:12:34;96449.50;;;17.82;43.27
8253;BME280;61313;48.396;10.008;2024-02-15T11:14:59;96446.66;;;18.33;42.43
8253;BME280;61313;48.396;10.008;2024-02-15T11:20:06;96426.59;;;18.65;41.61
8253;BME280;61313;48.396;10.008;2024-02-15T11:22:39;96438.03;;;17.32;43.98
8253;BME280;61313;48.396;10.008;2024-02-15T11:25:06;96428.53;;;17.53;44.30
8253;BME280;61313;48.396;10.008;2024-02-15T11:27:37;96426.59;;;18.05;43.34
8253;BME280;61313;48.396;10.008;2024-02-15T11:30:04;96427.75;;;17.77;43.50
8253;BME280;61313;48.396;10.008;2024-02-15T11:32:47;96420.22;;;18.32;42.99
8253;BME280;61313;48.396;10.008;2024-02-15T11:35:23;96419.31;;;18.20;42.91
8253;BME280;61313;48.396;10.008;2024-02-15T11:40:22;96411.69;;;17.78;44.22
8253;BME280;61313;48.396;10.008;2024-02-15T11:42:53;96421.97;;;16.29;47.22
8253;BME280;61313;48.396;10.008;2024-02-15T11:45:19;96413.59;;;16.76;46.66
8253;BME280;61313;48.396;10.008;2024-02-15T11:47:49;96411.41;;;16.95;46.41
8253;BME280;61313;48.396;10.008;2024-02-15T11:50:19;96409.16;;;16.89;45.80
8253;BME280;61313;48.396;10.008;2024-02-15T11:52:46;96397.72;;;16.88;46.70
8253;BME280;61313;48.396;10.008;2024-02-15T11:55:23;96399.25;;;17.92;44.76
8253;BME280;61313;48.396;10.008;2024-02-15T11:57:58;96397.72;;;18.25;43.29
8253;BME280;61313;48.396;10.008;2024-02-15T12:00:37;96391.56;;;18.59;42.37
8253;BME280;61313;48.396;10.008;2024-02-15T12:03:22;96386.63;;;17.95;43.64
8253;BME280;61313;48.396;10.008;2024-02-15T12:06:06;96390.16;;;17.83;44.21
8253;BME280;61313;48.396;10.008;2024-02-15T12:08:53;96384.91;;;17.94;44.18
8253;BME280;61313;48.396;10.008;2024-02-15T12:11:38;96386.31;;;18.47;43.11
8253;BME280;61313;48.396;10.008;2024-02-15T12:14:22;96383.94;;;18.55;42.29
8253;BME280;61313;48.396;10.008;2024-02-15T12:17:08;96378.22;;;18.13;42.56
8253;BME280;61313;48.396;10.008;2024-02-15T12:19:53;96381.47;;;18.05;42.97
8253;BME280;61313;48.396;10.008;2024-02-15T12:22:25;96376.31;;;18.50;42.22
8253;BME280;61313;48.396;10.008;2024-02-15T12:24:56;96374.09;;;18.44;42.02
8253;BME280;61313;48.396;10.008;2024-02-15T12:27:22;96368.72;;;18.57;41.76
8253;BME280;61313;48.396;10.008;2024-02-15T12:29:57;96366.88;;;18.46;42.31
8253;BME280;61313;48.396;10.008;2024-02-15T12:32:24;96360.16;;;18.65;42.52
8253;BME280;61313;48.396;10.008;2024-02-15T12:34:51;96367.16;;;18.19;43.10
8253;BME280;61313;48.396;10.008;2024-02-15T12:37:20;96364.22;;;17.13;44.60
8253;BME280;61313;48.396;10.008;2024-02-15T12:39:51;96369.66;;;16.99;45.49
8253;BME280;61313;48.396;10.008;2024-02-15T12:42:17;96360.19;;;16.95;46.28
8253;BME280;61313;48.396;10.008;2024-02-15T12:44:46;96361.16;;;17.43;44.80
8253;BME280;61313;48.396;10.008;2024-02-15T12:47:19;96358.25;;;17.09;45.79
8253;BME280;61313;48.396;10.008;2024-02-15T12:49:44;96361.94;;;17.32;45.43
8253;BME280;61313;48.396;10.008;2024-02-15T12:52:34;96348.13;;;17.40;45.00
8253;BME280;61313;48.396;10.008;2024-02-15T12:55:11;96345.22;;;17.56;44.93
8253;BME280;61313;48.396;10.008;2024-02-15T12:57:36;96344.38;;;17.55;44.81
8253;BME280;61313;48.396;10.008;2024-02-15T13:00:06;96342.16;;;17.00;45.54
8253;BME280;61313;48.396;10.008;2024-02-15T13:02:39;96335.69;;;16.91;45.97
8253;BME280;61313;48.396;10.008;2024-02-15T13:05:06;96336.13;;;16.46;46.88
8253;BME280;61313;48.396;10.008;2024-02-15T13:07:34;96330.44;;;16.13;48.34
8253;BME280;61313;48.396;10.008;2024-02-15T13:10:00;96341.31;;;16.35;47.50
8253;BME280;61313;48.396;10.008;2024-02-15T13:12:26;96333.75;;;16.16;47.74
8253;BME280;61313;48.396;10.008;2024-02-15T13:14:51;96324.75;;;16.70;46.82